Time;durP1;ratioP1;P1;durP2;ratioP2;P2;SDS_P1;SDS_P2;PMS_P1;PMS_P2;Temp;Humidity;BMP_temperature;BMP_pressure;BME280_temperature;BME280_humidity;BME280_pressure;Samples;Min_cycle;Max_cycle;Signal;HPM_P1;HPM_P2
2023/02/25 00:01:20;;;;;;;114.28;31.58;;;28.90;71.50;;;;;;5075332;28;20028;-55
2023/02/25 00:03:47;;;;;;;105.00;26.73;;;28.90;71.70;;;;;;5078251;28;20028;-51
2023/02/25 00:06:15;;;;;;;97.03;19.92;;;28.80;71.70;;;;;;5083099;28;20070;-47
2023/02/25 00:08:45;;;;;;;56.05;15.25;;;28.20;72.10;;;;;;5082043;28;20028;-52
2023/02/25 00:11:13;;;;;;;29.48;11.80;;;27.90;73.30;;;;;;5082059;28;20343;-51
2023/02/25 00:13:42;;;;;;;29.63;11.82;;;27.70;73.80;;;;;;5077625;28;20050;-51
2023/02/25 00:16:10;;;;;;;29.02;11.02;;;27.50;74.50;;;;;;5077598;28;20108;-52
2023/02/25 00:18:39;;;;;;;27.67;11.02;;;27.40;75.00;;;;;;5083261;28;20051;-52
2023/02/25 00:21:13;;;;;;;24.58;11.25;;;27.60;74.80;;;;;;5083285;28;20219;-51
2023/02/25 00:23:47;;;;;;;24.63;13.73;;;27.80;74.30;;;;;;5082122;28;20032;-53
2023/02/25 00:26:15;;;;;;;25.42;12.43;;;27.90;73.80;;;;;;5082619;28;20035;-55
2023/02/25 00:28:42;;;;;;;25.55;12.23;;;28.10;73.10;;;;;;5083044;28;20289;-54
2023/02/25 00:31:11;;;;;;;30.40;11.27;;;28.20;72.80;;;;;;5083228;28;20056;-55
2023/02/25 00:33:40;;;;;;;24.70;10.65;;;28.20;72.30;;;;;;5085096;28;20035;-53
2023/02/25 00:36:08;;;;;;;21.33;9.38;;;28.30;72.40;;;;;;5086462;28;20325;-55
2023/02/25 00:38:35;;;;;;;22.30;10.20;;;28.40;72.00;;;;;;5086761;28;20059;-56
2023/02/25 00:41:12;;;;;;;23.45;10.27;;;28.40;72.00;;;;;;5086482;28;20025;-55
2023/02/25 00:43:43;;;;;;;27.23;9.88;;;28.40;71.80;;;;;;5086742;28;20031;-51
2023/02/25 00:46:11;;;;;;;21.90;10.05;;;28.40;71.80;;;;;;5086449;28;20025;-52
2023/02/25 00:48:38;;;;;;;23.25;9.43;;;28.40;71.30;;;;;;5086568;28;20025;-53
2023/02/25 00:51:06;;;;;;;23.58;9.30;;;28.40;71.20;;;;;;5086466;28;20063;-54
2023/02/25 00:53:33;;;;;;;22.10;8.63;;;28.40;71.10;;;;;;5086406;28;20048;-51
2023/02/25 00:56:00;;;;;;;25.13;9.20;;;28.50;71.10;;;;;;5086042;28;20087;-54
2023/02/25 00:58:27;;;;;;;10.20;8.63;;;28.40;70.90;;;;;;5086474;28;20272;-56
2023/02/25 01:00:54;;;;;;;16.48;8.95;;;28.40;71.00;;;;;;5086194;28;20037;-52
2023/02/25 01:03:21;;;;;;;12.65;8.55;;;28.40;70.70;;;;;;5086260;28;20308;-54
2023/02/25 01:05:48;;;;;;;15.10;9.13;;;28.40;70.70;;;;;;5086167;28;20108;-50
2023/02/25 01:08:24;;;;;;;16.40;9.32;;;28.40;70.80;;;;;;5086279;28;20359;-53
2023/02/25 01:10:52;;;;;;;11.10;8.38;;;28.30;70.70;;;;;;5085684;28;20095;-54
2023/02/25 01:13:18;;;;;;;27.75;9.48;;;28.30;70.60;;;;;;5085950;28;20039;-53
2023/02/25 01:15:45;;;;;;;26.92;9.98;;;28.30;70.50;;;;;;5085978;28;20029;-52
2023/02/25 01:18:11;;;;;;;19.92;9.30;;;28.30;70.60;;;;;;5085682;28;20029;-56
2023/02/25 01:20:40;;;;;;;17.20;8.70;;;28.30;70.50;;;;;;5085701;28;20048;-52
2023/02/25 01:23:06;;;;;;;28.88;8.95;;;28.20;70.60;;;;;;5084803;28;20227;-53
2023/02/25 01:25:33;;;;;;;19.08;8.30;;;28.20;70.50;;;;;;5083511;28;20064;-56
2023/02/25 01:28:00;;;;;;;13.05;9.20;;;28.20;70.30;;;;;;5083828;28;20040;-52
2023/02/25 01:30:26;;;;;;;13.48;8.45;;;28.20;70.40;;;;;;5085462;28;20096;-52
2023/02/25 01:32:53;;;;;;;15.15;8.48;;;28.20;70.20;;;;;;5085477;28;20066;-53
2023/02/25 01:35:19;;;;;;;13.75;9.02;;;28.20;70.50;;;;;;5085712;28;20052;-54
2023/02/25 01:37:48;;;;;;;16.75;8.73;;;28.10;70.30;;;;;;5085004;28;20016;-53
2023/02/25 01:40:16;;;;;;;17.98;9.23;;;28.10;70.30;;;;;;5085399;28;20100;-53
2023/02/25 01:42:44;;;;;;;12.93;8.32;;;28.10;70.40;;;;;;5085628;28;20293;-53
2023/02/25 01:45:17;;;;;;;13.38;7.95;;;28.10;70.30;;;;;;5085253;28;20087;-53
2023/02/25 01:47:47;;;;;;;13.52;8.60;;;28.10;70.10;;;;;;5085253;28;20351;-54
2023/02/25 01:50:14;;;;;;;18.25;8.88;;;28.10;69.80;;;;;;5085078;28;20082;-51
2023/02/25 01:52:41;;;;;;;17.77;8.48;;;28.10;69.80;;;;;;5084720;28;20035;-50
2023/02/25 01:55:10;;;;;;;15.38;8.00;;;28.10;69.60;;;;;;5085122;28;20025;-53
2023/02/25 01:57:36;;;;;;;20.23;8.57;;;28.00;69.60;;;;;;5085050;28;20047;-53
2023/02/25 02:00:26;;;;;;;15.98;8.45;;;28.00;69.50;;;;;;5084897;28;20033;-51
2023/02/25 02:02:54;;;;;;;13.55;8.52;;;28.10;69.50;;;;;;5084875;28;20092;-51
2023/02/25 02:05:24;;;;;;;15.57;8.27;;;28.00;69.30;;;;;;5084812;28;20036;-52
2023/02/25 02:07:51;;;;;;;12.57;8.02;;;28.00;69.30;;;;;;5084491;28;20028;-52
2023/02/25 02:10:18;;;;;;;12.68;8.32;;;28.00;69.20;;;;;;5084825;28;20036;-52
2023/02/25 02:12:46;;;;;;;10.88;8.00;;;27.90;69.20;;;;;;5084602;28;20043;-52
2023/02/25 02:15:14;;;;;;;20.00;9.00;;;27.90;69.20;;;;;;5084820;28;20043;-53
2023/02/25 02:17:53;;;;;;;14.52;8.77;;;27.90;69.20;;;;;;5084678;28;20012;-51
2023/02/25 02:20:42;;;;;;;18.42;8.43;;;27.90;69.20;;;;;;5084403;28;20063;-51
2023/02/25 02:23:34;;;;;;;16.63;8.45;;;27.90;69.00;;;;;;5064415;28;20077;-52
2023/02/25 02:26:40;;;;;;;10.95;8.68;;;27.90;69.10;;;;;;5084542;28;20047;-53
2023/02/25 02:29:22;;;;;;;12.45;9.00;;;27.80;68.90;;;;;;5084845;28;20024;-56
2023/02/25 02:31:51;;;;;;;;;;;27.80;68.70;;;;;;5084736;28;20068;-54
2023/02/25 02:34:43;;;;;;;11.90;8.70;;;27.90;68.90;;;;;;5084924;28;20095;-51
2023/02/25 02:37:30;;;;;;;13.90;8.27;;;27.80;68.60;;;;;;5083801;28;20036;-52
2023/02/25 02:40:14;;;;;;;12.63;8.07;;;27.80;68.40;;;;;;5084376;28;20031;-51
2023/02/25 02:43:00;;;;;;;11.18;7.80;;;27.80;68.50;;;;;;5084219;28;20032;-52
2023/02/25 02:45:51;;;;;;;13.32;8.40;;;27.80;68.20;;;;;;5084410;28;20221;-51
2023/02/25 02:48:33;;;;;;;17.85;7.72;;;27.80;68.20;;;;;;5084429;28;20037;-52
2023/02/25 02:51:10;;;;;;;15.02;7.47;;;27.80;67.90;;;;;;5083780;28;20051;-52
2023/02/25 02:53:43;;;;;;;12.45;7.55;;;27.80;67.90;;;;;;5084428;28;20052;-53
2023/02/25 02:56:14;;;;;;;12.73;7.50;;;27.70;67.70;;;;;;5083627;28;20047;-51
2023/02/25 02:58:46;;;;;;;13.43;10.75;;;27.70;67.40;;;;;;5084280;28;20320;-53
2023/02/25 03:01:29;;;;;;;15.52;13.15;;;27.70;67.40;;;;;;5083867;28;20099;-55
2023/02/25 03:04:05;;;;;;;20.73;16.77;;;27.70;67.30;;;;;;5083864;28;20033;-53
2023/02/25 03:06:41;;;;;;;21.75;16.23;;;27.70;67.00;;;;;;5083460;28;20032;-52
2023/02/25 03:09:13;;;;;;;22.40;17.80;;;27.70;66.70;;;;;;5084226;28;20055;-55
2023/02/25 03:11:40;;;;;;;23.48;19.25;;;27.70;66.70;;;;;;5083712;28;20025;-54
2023/02/25 03:14:07;;;;;;;17.83;15.80;;;27.70;66.60;;;;;;5084323;28;20024;-54
2023/02/25 03:16:39;;;;;;;20.67;17.55;;;27.70;66.40;;;;;;5083814;28;20029;-52
2023/02/25 03:19:26;;;;;;;29.52;12.90;;;27.70;66.30;;;;;;5081943;28;20093;-53
2023/02/25 03:21:57;;;;;;;18.80;12.25;;;27.60;66.10;;;;;;5077356;28;20039;-55
2023/02/25 03:24:47;;;;;;;15.83;10.90;;;27.70;66.10;;;;;;5079540;28;20066;-57
2023/02/25 03:27:38;;;;;;;12.88;9.35;;;27.70;65.70;;;;;;5083396;28;20038;-54
2023/02/25 03:30:28;;;;;;;14.15;8.48;;;27.70;65.60;;;;;;5083676;28;20028;-56
2023/02/25 03:33:07;;;;;;;12.25;8.27;;;27.70;65.50;;;;;;5080684;28;20039;-53
2023/02/25 03:35:36;;;;;;;11.50;8.18;;;27.70;65.40;;;;;;5083749;28;20038;-54
2023/02/25 03:38:08;;;;;;;14.50;8.98;;;27.70;65.30;;;;;;5083324;28;20031;-55
2023/02/25 03:40:35;;;;;;;;;;;27.70;65.30;;;;;;5083950;28;20033;-56
2023/02/25 03:43:16;;;;;;;12.77;8.32;;;27.70;65.20;;;;;;5083598;28;19904;-54
2023/02/25 03:45:44;;;;;;;13.88;7.53;;;27.70;65.00;;;;;;5083516;28;20063;-54
2023/02/25 03:48:13;;;;;;;11.73;7.13;;;27.70;64.80;;;;;;5083525;28;20051;-56
2023/02/25 03:50:48;;;;;;;11.07;6.80;;;27.70;64.50;;;;;;5078292;28;20024;-54
2023/02/25 03:53:15;;;;;;;9.40;6.63;;;27.70;64.40;;;;;;5073696;28;20025;-56
2023/02/25 03:55:42;;;;;;;11.10;6.47;;;27.70;64.10;;;;;;5083445;28;20044;-53
2023/02/25 03:58:09;;;;;;;8.05;6.25;;;27.60;64.10;;;;;;5081634;28;20064;-57
2023/02/25 04:00:38;;;;;;;9.38;6.50;;;27.60;64.10;;;;;;5081759;28;20336;-54
2023/02/25 04:03:05;;;;;;;12.80;6.07;;;27.60;63.90;;;;;;5081928;28;20356;-58
2023/02/25 04:05:31;;;;;;;10.35;6.22;;;27.60;63.70;;;;;;5081670;28;20029;-55
2023/02/25 04:07:59;;;;;;;9.80;6.22;;;27.60;64.00;;;;;;5082635;28;20040;-56
2023/02/25 04:10:26;;;;;;;8.38;6.35;;;27.60;63.90;;;;;;5085437;28;20217;-53
2023/02/25 04:12:53;;;;;;;12.55;5.38;;;27.60;63.90;;;;;;5086612;28;20304;-55
2023/02/25 04:15:20;;;;;;;6.43;5.65;;;27.50;63.60;;;;;;5087022;28;20289;-55
2023/02/25 04:17:47;;;;;;;8.65;5.82;;;27.50;63.60;;;;;;5086975;28;20208;-53
2023/02/25 04:20:15;;;;;;;9.23;5.75;;;27.50;63.30;;;;;;5086771;28;20055;-56
2023/02/25 04:22:42;;;;;;;9.02;5.95;;;27.50;63.30;;;;;;5087176;28;20029;-56
2023/02/25 04:25:09;;;;;;;9.98;5.93;;;27.50;63.10;;;;;;5086832;28;20035;-57
2023/02/25 04:27:36;;;;;;;6.53;5.93;;;27.50;63.00;;;;;;5086269;28;20024;-52
2023/02/25 04:30:03;;;;;;;9.23;6.20;;;27.50;62.90;;;;;;5086792;28;20048;-54
2023/02/25 04:32:30;;;;;;;7.93;5.95;;;27.50;62.90;;;;;;5086751;28;20035;-54
2023/02/25 04:35:01;;;;;;;7.78;6.03;;;27.50;62.90;;;;;;5086598;28;20028;-54
2023/02/25 04:37:29;;;;;;;7.32;6.07;;;27.50;63.00;;;;;;5086571;28;20099;-56
2023/02/25 04:39:56;;;;;;;8.07;6.43;;;27.40;63.00;;;;;;5085226;28;20040;-53
2023/02/25 04:42:22;;;;;;;7.15;5.93;;;27.40;62.90;;;;;;5086420;28;20032;-53
2023/02/25 04:44:49;;;;;;;12.25;6.25;;;27.40;63.00;;;;;;5087121;28;20387;-54
2023/02/25 04:47:17;;;;;;;12.50;6.63;;;27.40;62.90;;;;;;5086799;28;20063;-53
2023/02/25 04:49:44;;;;;;;17.77;6.80;;;27.30;62.80;;;;;;5086716;28;20095;-54
2023/02/25 04:52:14;;;;;;;16.02;6.57;;;27.30;62.90;;;;;;5086413;28;20035;-53
2023/02/25 04:54:43;;;;;;;14.02;6.10;;;27.30;62.90;;;;;;5086923;28;20043;-53
2023/02/25 04:57:11;;;;;;;10.35;6.22;;;27.30;62.80;;;;;;5086232;28;20036;-55
2023/02/25 04:59:39;;;;;;;8.02;5.60;;;27.30;62.70;;;;;;5086794;28;20066;-53
2023/02/25 05:02:07;;;;;;;9.40;6.15;;;27.20;62.60;;;;;;5086205;28;20036;-51
2023/02/25 05:04:34;;;;;;;8.73;6.10;;;27.20;62.60;;;;;;5086602;28;20036;-53
2023/02/25 05:07:01;;;;;;;10.63;5.70;;;27.20;62.40;;;;;;5086183;28;20330;-53
2023/02/25 05:09:28;;;;;;;10.60;5.53;;;27.20;62.20;;;;;;5086313;28;20134;-54
2023/02/25 05:11:54;;;;;;;9.50;5.70;;;27.20;61.90;;;;;;5086066;28;20028;-53
2023/02/25 05:14:21;;;;;;;5.95;5.15;;;27.20;61.70;;;;;;5086473;28;20052;-57
2023/02/25 05:16:48;;;;;;;9.05;5.50;;;27.10;61.50;;;;;;5086016;28;20020;-53
2023/02/25 05:19:22;;;;;;;6.85;5.53;;;27.10;61.30;;;;;;5085587;28;20056;-53
2023/02/25 05:21:52;;;;;;;6.55;5.75;;;27.10;61.10;;;;;;5085927;28;20040;-56
2023/02/25 05:24:22;;;;;;;6.65;5.85;;;27.10;61.10;;;;;;5086080;28;20024;-56
2023/02/25 05:26:50;;;;;;;6.55;5.70;;;27.10;61.30;;;;;;5085732;28;20040;-53
2023/02/25 05:29:16;;;;;;;8.63;5.90;;;27.10;61.40;;;;;;5085890;28;20105;-53
2023/02/25 05:31:43;;;;;;;7.25;5.90;;;27.10;61.50;;;;;;5085674;28;20042;-58
2023/02/25 05:34:10;;;;;;;5.90;5.40;;;27.10;61.40;;;;;;5086106;28;20050;-52
2023/02/25 05:36:36;;;;;;;9.57;6.00;;;27.10;61.50;;;;;;5085751;28;20017;-55
2023/02/25 05:39:03;;;;;;;8.38;6.05;;;27.00;61.40;;;;;;5085765;28;20040;-53
2023/02/25 05:41:30;;;;;;;9.23;5.95;;;27.00;61.30;;;;;;5085429;28;20221;-53
2023/02/25 05:43:57;;;;;;;11.07;5.72;;;27.00;61.50;;;;;;5085783;28;20031;-56
2023/02/25 05:46:23;;;;;;;7.72;5.78;;;27.00;61.60;;;;;;5085261;28;20041;-57
2023/02/25 05:48:50;;;;;;;7.80;5.75;;;27.00;61.70;;;;;;5085492;28;20373;-56
2023/02/25 05:51:21;;;;;;;8.60;6.35;;;27.00;62.30;;;;;;5085440;28;20037;-54
2023/02/25 05:53:48;;;;;;;7.28;6.00;;;26.90;61.80;;;;;;5085318;28;20062;-55
2023/02/25 05:56:17;;;;;;;7.05;5.85;;;26.90;61.80;;;;;;5085583;28;20013;-58
2023/02/25 05:58:46;;;;;;;9.20;5.72;;;26.90;61.80;;;;;;5085306;28;20028;-56
2023/02/25 06:01:17;;;;;;;9.40;6.75;;;26.90;61.70;;;;;;5084993;28;20024;-55
2023/02/25 06:03:46;;;;;;;8.05;5.90;;;26.90;61.70;;;;;;5085297;28;20036;-55
2023/02/25 06:06:16;;;;;;;7.70;5.88;;;26.90;61.70;;;;;;5085013;28;20020;-54
2023/02/25 06:08:43;;;;;;;8.43;5.38;;;26.90;62.20;;;;;;5084856;28;20196;-55
2023/02/25 06:11:13;;;;;;;6.95;5.50;;;26.90;61.80;;;;;;5084818;28;20028;-55
2023/02/25 06:13:40;;;;;;;8.05;5.75;;;26.90;62.00;;;;;;5085043;28;20016;-57
2023/02/25 06:16:07;;;;;;;7.25;6.55;;;26.90;62.10;;;;;;5084718;28;20040;-57
2023/02/25 06:18:35;;;;;;;8.70;6.15;;;26.90;62.30;;;;;;5084742;28;20046;-54
2023/02/25 06:21:10;;;;;;;9.43;6.30;;;26.90;62.40;;;;;;5084471;28;20275;-54
2023/02/25 06:23:38;;;;;;;7.68;6.57;;;26.90;62.80;;;;;;5084982;28;20033;-54
2023/02/25 06:26:06;;;;;;;8.63;6.40;;;26.90;62.90;;;;;;5084616;28;20032;-59
2023/02/25 06:28:34;;;;;;;7.88;6.20;;;26.90;63.10;;;;;;5084579;28;20031;-55
2023/02/25 06:31:00;;;;;;;11.35;6.60;;;26.90;63.40;;;;;;5083732;28;20029;-54
2023/02/25 06:33:32;;;;;;;6.32;5.57;;;26.90;63.60;;;;;;5084620;28;20024;-55
2023/02/25 06:35:59;;;;;;;6.82;6.03;;;26.90;63.80;;;;;;5084381;28;20032;-55
2023/02/25 06:38:25;;;;;;;8.68;6.25;;;26.90;63.90;;;;;;5084503;28;20029;-54
2023/02/25 06:40:52;;;;;;;7.57;6.05;;;26.90;64.10;;;;;;5084520;28;20041;-56
2023/02/25 06:43:18;;;;;;;6.50;5.90;;;26.80;64.00;;;;;;5084261;28;20134;-55
2023/02/25 06:45:45;;;;;;;7.38;5.60;;;26.80;63.90;;;;;;5084293;28;20376;-56
2023/02/25 06:48:12;;;;;;;8.57;6.00;;;26.80;63.70;;;;;;5084301;28;20032;-55
2023/02/25 06:50:40;;;;;;;6.38;5.30;;;26.80;63.60;;;;;;5084033;28;20032;-55
2023/02/25 06:53:07;;;;;;;6.13;5.00;;;26.80;63.30;;;;;;5084341;28;20096;-55
2023/02/25 06:55:34;;;;;;;9.35;5.40;;;26.80;63.30;;;;;;5084220;28;20033;-55
2023/02/25 06:58:01;;;;;;;6.35;5.32;;;26.80;63.20;;;;;;5084081;28;20017;-61
2023/02/25 07:00:27;;;;;;;6.85;4.93;;;26.80;63.00;;;;;;5084274;28;20063;-55
2023/02/25 07:02:54;;;;;;;5.65;4.95;;;26.80;62.90;;;;;;5083999;28;20078;-55
2023/02/25 07:05:20;;;;;;;5.95;4.78;;;26.70;62.60;;;;;;5083986;28;20032;-56
2023/02/25 07:07:47;;;;;;;6.88;5.00;;;26.70;62.40;;;;;;5083978;28;20024;-60
2023/02/25 07:10:13;;;;;;;6.57;4.80;;;26.70;62.20;;;;;;5083780;28;20281;-59
2023/02/25 07:12:40;;;;;;;7.75;4.85;;;26.70;62.10;;;;;;5084028;28;20024;-56
2023/02/25 07:15:08;;;;;;;9.57;5.20;;;26.70;61.70;;;;;;5083872;28;20073;-53
2023/02/25 07:17:34;;;;;;;12.73;4.85;;;26.70;61.50;;;;;;5083884;28;20031;-54
2023/02/25 07:20:01;;;;;;;8.68;4.75;;;26.70;61.30;;;;;;5083591;28;20041;-54
2023/02/25 07:22:27;;;;;;;5.03;4.40;;;26.70;61.00;;;;;;5083840;28;20037;-55
2023/02/25 07:24:54;;;;;;;8.75;5.00;;;26.80;60.60;;;;;;5084037;28;20228;-56
2023/02/25 07:27:21;;;;;;;8.80;4.55;;;26.70;60.40;;;;;;5082698;28;20097;-51
2023/02/25 07:29:47;;;;;;;5.13;4.20;;;26.70;60.10;;;;;;5084161;28;20108;-53
2023/02/25 07:32:14;;;;;;;4.88;4.28;;;26.70;59.80;;;;;;5083773;28;20066;-54
2023/02/25 07:34:41;;;;;;;7.55;4.18;;;26.70;59.60;;;;;;5084137;28;20024;-54
2023/02/25 07:37:07;;;;;;;6.22;4.05;;;26.70;59.50;;;;;;5083634;28;20031;-57
2023/02/25 07:39:34;;;;;;;4.88;4.22;;;26.70;59.40;;;;;;5084189;28;20036;-55
2023/02/25 07:42:00;;;;;;;5.97;4.25;;;26.70;59.40;;;;;;5084536;28;20251;-55
2023/02/25 07:44:27;;;;;;;5.10;4.07;;;26.70;59.10;;;;;;5088048;28;20066;-59
2023/02/25 07:46:53;;;;;;;4.65;4.07;;;26.70;59.20;;;;;;5087891;28;20032;-58
2023/02/25 07:49:20;;;;;;;5.88;4.35;;;26.60;59.10;;;;;;5087574;28;20024;-55
2023/02/25 07:51:46;;;;;;;5.28;4.13;;;26.60;59.10;;;;;;5087424;28;20035;-54
2023/02/25 07:54:14;;;;;;;5.13;3.88;;;26.60;59.00;;;;;;5087994;28;20092;-54
2023/02/25 07:56:41;;;;;;;7.32;3.95;;;26.60;59.10;;;;;;5087453;28;20066;-54
2023/02/25 07:59:07;;;;;;;5.53;4.13;;;26.60;59.00;;;;;;5087750;28;20043;-55
2023/02/25 08:01:34;;;;;;;6.03;4.03;;;26.60;59.10;;;;;;5087458;28;20032;-57
2023/02/25 08:04:03;;;;;;;4.63;3.92;;;26.60;59.00;;;;;;5087603;28;20028;-55
2023/02/25 08:06:30;;;;;;;5.95;3.92;;;26.60;59.00;;;;;;5087131;28;20039;-56
2023/02/25 08:08:57;;;;;;;5.43;4.00;;;26.60;59.00;;;;;;5087422;28;20016;-54
2023/02/25 08:11:25;;;;;;;6.28;4.13;;;26.60;59.00;;;;;;5087183;28;20060;-54
2023/02/25 08:13:51;;;;;;;7.55;4.05;;;26.60;58.90;;;;;;5087255;28;20025;-54
2023/02/25 08:16:20;;;;;;;4.63;3.85;;;26.60;59.00;;;;;;5087154;28;20062;-54
2023/02/25 08:18:47;;;;;;;5.60;3.70;;;26.60;58.80;;;;;;5087303;28;20099;-54
2023/02/25 08:21:22;;;;;;;6.72;3.92;;;26.50;58.80;;;;;;5086814;28;20100;-54
2023/02/25 08:23:53;;;;;;;7.40;4.32;;;26.50;58.80;;;;;;5087177;28;20032;-54
2023/02/25 08:26:21;;;;;;;4.55;3.83;;;26.50;58.80;;;;;;5086808;28;20025;-52
2023/02/25 08:28:48;;;;;;;8.00;4.32;;;26.60;58.80;;;;;;5087013;28;20031;-53
2023/02/25 08:31:15;;;;;;;6.43;3.90;;;26.60;58.80;;;;;;5086909;28;20028;-56
2023/02/25 08:33:48;;;;;;;6.72;4.00;;;26.60;58.80;;;;;;5086878;28;20016;-55
2023/02/25 08:36:27;;;;;;;5.40;3.95;;;26.60;58.90;;;;;;5086746;28;20033;-55
2023/02/25 08:38:56;;;;;;;5.22;4.22;;;26.50;58.90;;;;;;5086925;28;20312;-54
2023/02/25 08:41:24;;;;;;;5.95;4.40;;;26.60;59.10;;;;;;5086594;28;20072;-55
2023/02/25 08:43:53;;;;;;;4.50;3.90;;;26.60;59.20;;;;;;5086889;28;20031;-56
2023/02/25 08:46:21;;;;;;;8.95;4.28;;;26.60;59.20;;;;;;5086709;28;20097;-54
2023/02/25 08:48:50;;;;;;;7.25;4.28;;;26.60;59.40;;;;;;5086335;28;20212;-54
2023/02/25 08:51:17;;;;;;;7.07;4.32;;;26.60;59.60;;;;;;5086521;28;20055;-55
2023/02/25 08:53:43;;;;;;;6.47;4.38;;;26.50;59.70;;;;;;5085716;28;20078;-57
2023/02/25 08:56:15;;;;;;;6.03;4.22;;;26.50;59.80;;;;;;5086650;28;20087;-55
2023/02/25 08:58:42;;;;;;;5.78;5.03;;;26.50;59.90;;;;;;5086676;28;20031;-53
2023/02/25 09:01:13;;;;;;;6.18;4.05;;;26.50;59.90;;;;;;5086123;28;20033;-55
2023/02/25 09:03:57;;;;;;;4.40;4.00;;;26.40;60.00;;;;;;5086505;28;20037;-53
2023/02/25 09:06:26;;;;;;;5.03;4.32;;;26.40;60.20;;;;;;5086059;28;20029;-53
2023/02/25 09:08:55;;;;;;;6.18;4.30;;;26.30;60.50;;;;;;5086243;28;20060;-54
2023/02/25 09:11:23;;;;;;;8.40;4.40;;;26.30;60.80;;;;;;5086053;28;20035;-55
2023/02/25 09:13:51;;;;;;;6.35;4.60;;;26.30;61.10;;;;;;5086149;28;20028;-57
2023/02/25 09:16:18;;;;;;;4.57;4.07;;;26.30;61.30;;;;;;5085984;28;20224;-55
2023/02/25 09:18:46;;;;;;;4.65;4.03;;;26.20;61.50;;;;;;5086144;28;20017;-55
2023/02/25 09:21:13;;;;;;;5.38;4.18;;;26.20;61.80;;;;;;5085710;28;20052;-56
2023/02/25 09:23:40;;;;;;;5.70;4.15;;;26.10;61.50;;;;;;5086078;28;20028;-54
2023/02/25 09:26:07;;;;;;;7.00;4.13;;;26.10;61.70;;;;;;5085891;28;20024;-55
2023/02/25 09:28:35;;;;;;;6.28;4.10;;;26.10;61.80;;;;;;5085835;28;20027;-55
2023/02/25 09:31:02;;;;;;;5.35;4.03;;;26.10;62.00;;;;;;5085611;28;20037;-55
2023/02/25 09:33:31;;;;;;;6.80;4.28;;;26.10;61.90;;;;;;5085680;28;20023;-54
2023/02/25 09:36:23;;;;;;;6.53;4.20;;;26.10;61.70;;;;;;5085521;28;20086;-57
2023/02/25 09:38:50;;;;;;;;;;;26.00;61.60;;;;;;5077170;28;20032;-55
2023/02/25 09:41:46;;;;;;;6.38;4.20;;;26.00;61.60;;;;;;5065394;28;20192;-54
2023/02/25 09:44:20;;;;;;;7.05;4.10;;;26.00;61.80;;;;;;5065784;28;20036;-56
2023/02/25 09:47:11;;;;;;;6.88;4.30;;;26.00;61.80;;;;;;5065445;28;20325;-57
2023/02/25 09:49:59;;;;;;;6.65;4.63;;;26.00;61.80;;;;;;5065428;28;20075;-55
2023/02/25 09:52:31;;;;;;;6.25;4.22;;;26.00;61.70;;;;;;5065321;28;20033;-56
2023/02/25 09:54:58;;;;;;;;;;;26.00;61.70;;;;;;5065565;28;20029;-56
2023/02/25 09:57:24;;;;;;;6.97;4.70;;;26.00;61.90;;;;;;5065191;28;19905;-55
2023/02/25 09:59:52;;;;;;;7.78;4.88;;;26.00;62.00;;;;;;5065602;28;20178;-56
2023/02/25 10:02:26;;;;;;;8.63;4.80;;;26.00;61.90;;;;;;5064973;28;20025;-56
2023/02/25 10:05:34;;;;;;;6.22;4.53;;;26.00;61.70;;;;;;5065496;28;20029;-55
2023/02/25 10:08:11;;;;;;;7.60;4.65;;;26.00;61.40;;;;;;5016752;28;20049;-55
2023/02/25 10:11:00;;;;;;;6.95;4.75;;;26.00;61.20;;;;;;5064718;28;20074;-54
2023/02/25 10:13:52;;;;;;;6.22;4.22;;;26.00;61.00;;;;;;5065001;28;20101;-54
2023/02/25 10:16:53;;;;;;;7.72;4.18;;;26.00;60.40;;;;;;5064829;28;20257;-56
2023/02/25 10:19:49;;;;;;;7.25;4.05;;;26.00;60.20;;;;;;5064486;28;20071;-60
2023/02/25 10:22:31;;;;;;;5.47;3.88;;;26.00;59.70;;;;;;5064644;28;20329;-54
2023/02/25 10:25:10;;;;;;;6.15;3.90;;;26.00;59.10;;;;;;5064846;28;20037;-57
2023/02/25 10:27:54;;;;;;;6.03;4.13;;;26.00;59.00;;;;;;5064324;28;20324;-53
2023/02/25 10:30:31;;;;;;;4.88;3.55;;;26.10;58.90;;;;;;5064480;28;20394;-54
2023/02/25 10:33:05;;;;;;;5.57;3.80;;;26.00;58.60;;;;;;5064868;28;20037;-55
2023/02/25 10:35:38;;;;;;;5.13;3.97;;;26.10;58.50;;;;;;5064571;28;20101;-53
2023/02/25 10:38:04;;;;;;;6.03;3.70;;;26.00;58.30;;;;;;5064367;28;20296;-54
2023/02/25 10:40:31;;;;;;;7.03;3.53;;;26.00;58.10;;;;;;5064571;28;20043;-55
2023/02/25 10:43:13;;;;;;;4.90;3.72;;;26.00;58.10;;;;;;5065141;28;20288;-56
2023/02/25 10:45:43;;;;;;;5.95;3.75;;;26.00;58.10;;;;;;5084357;28;20074;-54
2023/02/25 10:48:21;;;;;;;3.78;3.38;;;26.00;58.10;;;;;;5084306;28;20044;-56
2023/02/25 10:51:11;;;;;;;4.70;3.95;;;26.00;58.00;;;;;;5084017;28;20078;-55
2023/02/25 10:54:03;;;;;;;7.72;4.20;;;26.00;58.00;;;;;;5084331;28;20173;-55
2023/02/25 10:56:41;;;;;;;5.85;3.80;;;26.00;57.90;;;;;;5084149;28;20082;-55
2023/02/25 10:59:29;;;;;;;7.40;4.35;;;26.00;57.60;;;;;;5084301;28;20100;-55
2023/02/25 11:01:57;;;;;;;7.55;3.42;;;26.00;57.10;;;;;;5083025;28;20382;-55
2023/02/25 11:04:31;;;;;;;8.85;4.30;;;26.10;57.10;;;;;;5084335;28;20371;-55
2023/02/25 11:06:57;;;;;;;7.28;4.00;;;26.10;56.70;;;;;;5082373;28;20095;-51
2023/02/25 11:09:25;;;;;;;5.57;3.40;;;26.10;56.30;;;;;;5082908;28;20048;-56
2023/02/25 11:12:18;;;;;;;8.13;3.80;;;26.10;56.20;;;;;;5075238;28;20054;-55
2023/02/25 11:14:45;;;;;;;9.10;3.75;;;26.20;56.20;;;;;;5070081;28;20092;-53
2023/02/25 11:17:19;;;;;;;12.77;4.75;;;26.20;56.20;;;;;;5077086;28;20041;-53
2023/02/25 11:19:48;;;;;;;19.15;5.25;;;26.20;56.60;;;;;;5074244;28;20341;-48
2023/02/25 11:22:27;;;;;;;25.88;6.05;;;26.20;57.00;;;;;;5073982;28;20081;-54
2023/02/25 11:25:06;;;;;;;29.75;5.78;;;26.10;57.40;;;;;;5076021;28;20040;-52
2023/02/25 11:27:38;;;;;;;21.23;5.65;;;26.20;57.50;;;;;;5074079;28;20200;-53
2023/02/25 11:30:33;;;;;;;21.90;5.80;;;26.20;57.50;;;;;;5076033;28;20328;-54
2023/02/25 11:33:29;;;;;;;58.75;7.38;;;26.20;57.80;;;;;;5084059;28;20021;-52
2023/02/25 11:35:58;;;;;;;41.88;6.38;;;26.10;57.70;;;;;;5080215;28;20077;-57
2023/02/25 11:38:40;;;;;;;33.78;6.28;;;26.10;58.00;;;;;;5083012;28;20023;-54
2023/02/25 11:41:22;;;;;;;23.98;5.80;;;26.10;58.20;;;;;;5082762;28;20037;-52
2023/02/25 11:43:50;;;;;;;18.10;5.10;;;26.10;58.30;;;;;;5082576;28;20059;-50
2023/02/25 11:46:20;;;;;;;20.58;5.28;;;26.10;58.60;;;;;;5082215;28;20041;-55
2023/02/25 11:49:01;;;;;;;16.90;5.20;;;26.10;59.00;;;;;;5082097;28;20074;-53
2023/02/25 11:51:44;;;;;;;28.35;5.40;;;26.10;59.30;;;;;;5081862;28;20321;-54
2023/02/25 11:54:42;;;;;;;24.67;5.75;;;26.10;59.40;;;;;;5082208;28;20012;-53
2023/02/25 11:57:32;;;;;;;20.23;5.38;;;26.10;59.60;;;;;;5081881;28;20036;-50
2023/02/25 12:00:28;;;;;;;13.85;5.30;;;26.10;59.80;;;;;;5081872;28;20095;-55
2023/02/25 12:03:25;;;;;;;18.15;5.32;;;26.10;60.10;;;;;;5083577;28;20312;-57
2023/02/25 12:05:59;;;;;;;26.95;6.10;;;26.20;60.20;;;;;;5083730;28;20020;-54
2023/02/25 12:08:57;;;;;;;23.58;5.32;;;26.20;60.40;;;;;;5083463;28;20212;-56
2023/02/25 12:11:43;;;;;;;20.85;5.40;;;26.20;60.70;;;;;;5083396;28;20029;-54
2023/02/25 12:14:49;;;;;;;21.20;5.63;;;26.30;60.70;;;;;;5083729;28;20036;-55
2023/02/25 12:17:36;;;;;;;15.48;5.35;;;26.30;60.80;;;;;;5083454;28;20069;-54
2023/02/25 12:20:51;;;;;;;17.25;5.30;;;26.30;60.90;;;;;;5083066;28;20048;-54
2023/02/25 12:23:23;;;;;;;15.93;5.80;;;26.40;61.20;;;;;;5083224;28;20016;-52
2023/02/25 12:25:59;;;;;;;15.23;5.00;;;26.40;61.00;;;;;;5083253;28;20056;-56
2023/02/25 12:28:58;;;;;;;13.57;4.68;;;26.40;60.80;;;;;;5083291;28;20074;-57
2023/02/25 12:31:47;;;;;;;15.90;4.50;;;26.50;60.80;;;;;;5082922;28;20232;-55
2023/02/25 12:34:25;;;;;;;20.60;5.20;;;26.50;61.50;;;;;;5087258;28;20347;-57
2023/02/25 12:37:26;;;;;;;20.80;5.35;;;26.50;61.10;;;;;;5086677;28;20028;-55
2023/02/25 12:39:53;;;;;;;15.25;5.22;;;26.50;61.40;;;;;;5087227;28;20044;-53
2023/02/25 12:42:20;;;;;;;17.38;5.43;;;26.50;61.30;;;;;;5086467;28;20059;-54
2023/02/25 12:44:55;;;;;;;19.20;4.90;;;26.60;61.20;;;;;;5087066;28;20031;-57
2023/02/25 12:47:29;;;;;;;12.77;5.00;;;26.60;61.30;;;;;;5086456;28;20043;-53
2023/02/25 12:50:24;;;;;;;12.32;4.80;;;26.60;61.00;;;;;;5086478;28;20031;-56
2023/02/25 12:53:05;;;;;;;16.58;5.03;;;26.60;61.10;;;;;;5086259;28;20028;-55
2023/02/25 12:55:42;;;;;;;12.47;4.87;;;26.60;61.10;;;;;;5086562;28;20017;-57
2023/02/25 12:58:18;;;;;;;21.35;5.72;;;26.60;61.00;;;;;;5086308;28;20598;-52
2023/02/25 13:00:56;;;;;;;16.40;5.30;;;26.70;61.10;;;;;;5086320;28;20024;-57
2023/02/25 13:03:41;;;;;;;16.17;4.72;;;26.70;60.90;;;;;;5085032;28;20225;-56
2023/02/25 13:06:35;;;;;;;13.98;5.10;;;26.70;60.80;;;;;;5086345;28;20373;-53
2023/02/25 13:09:20;;;;;;;91.82;12.27;;;26.70;61.00;;;;;;5086268;28;20047;-53
2023/02/25 13:12:13;;;;;;;35.30;6.75;;;26.80;61.20;;;;;;5085993;28;20040;-53